sensor_id;sensor_type;location;lat;lon;timestamp;pressure;altitude;pressure_sealevel;temperature;humidity
85268;BME280;75677;52.380;4.876;2024-03-07T00:02:09;102725.78;;;18.43;40.90
85268;BME280;75677;52.380;4.876;2024-03-07T00:04:35;102728.97;;;18.42;40.63
85268;BME280;75677;52.380;4.876;2024-03-07T00:07:02;102720.59;;;18.42;40.75
85268;BME280;75677;52.380;4.876;2024-03-07T00:09:31;102708.81;;;18.33;40.65
85268;BME280;75677;52.380;4.876;2024-03-07T00:11:56;102726.53;;;18.40;40.70
85268;BME280;75677;52.380;4.876;2024-03-07T00:14:21;102729.78;;;18.42;40.68
85268;BME280;75677;52.380;4.876;2024-03-07T00:16:47;102731.78;;;18.42;40.72
85268;BME280;75677;52.380;4.876;2024-03-07T00:19:13;102718.03;;;18.33;40.54
85268;BME280;75677;52.380;4.876;2024-03-07T00:21:39;102728.16;;;18.41;40.58
85268;BME280;75677;52.380;4.876;2024-03-07T00:24:05;102731.78;;;18.42;40.69
85268;BME280;75677;52.380;4.876;2024-03-07T00:26:30;102730.16;;;18.41;40.54
85268;BME280;75677;52.380;4.876;2024-03-07T00:28:56;102733.34;;;18.39;40.39
85268;BME280;75677;52.380;4.876;2024-03-07T00:31:21;102730.91;;;18.38;40.80
85268;BME280;75677;52.380;4.876;2024-03-07T00:33:46;102732.53;;;18.39;40.71
85268;BME280;75677;52.380;4.876;2024-03-07T00:36:12;102730.91;;;18.38;40.66
85268;BME280;75677;52.380;4.876;2024-03-07T00:38:37;102726.47;;;18.37;40.72
85268;BME280;75677;52.380;4.876;2024-03-07T00:41:03;102732.47;;;18.35;40.79
85268;BME280;75677;52.380;4.876;2024-03-07T00:43:28;102726.81;;;18.32;40.71
85268;BME280;75677;52.380;4.876;2024-03-07T00:45:53;102730.84;;;18.34;40.71
85268;BME280;75677;52.380;4.876;2024-03-07T00:48:19;102710.72;;;18.25;40.65
85268;BME280;75677;52.380;4.876;2024-03-07T00:50:45;102726.88;;;18.35;40.70
85268;BME280;75677;52.380;4.876;2024-03-07T00:53:10;102734.47;;;18.35;40.44
85268;BME280;75677;52.380;4.876;2024-03-07T00:55:35;102730.03;;;18.34;40.70
85268;BME280;75677;52.380;4.876;2024-03-07T00:58:01;102728.81;;;18.31;40.61
85268;BME280;75677;52.380;4.876;2024-03-07T01:00:28;102719.59;;;18.31;40.60
85268;BME280;75677;52.380;4.876;2024-03-07T01:02:53;102718.41;;;18.32;40.77
85268;BME280;75677;52.380;4.876;2024-03-07T01:05:19;102718.84;;;18.34;40.49
85268;BME280;75677;52.380;4.876;2024-03-07T01:07:45;102705.97;;;18.29;40.80
85268;BME280;75677;52.380;4.876;2024-03-07T01:10:14;102713.56;;;18.29;40.66
85268;BME280;75677;52.380;4.876;2024-03-07T01:12:39;102722.44;;;18.34;40.87
85268;BME280;75677;52.380;4.876;2024-03-07T01:15:05;102722.44;;;18.34;40.62
85268;BME280;75677;52.380;4.876;2024-03-07T01:17:32;102719.22;;;18.32;40.89
85268;BME280;75677;52.380;4.876;2024-03-07T01:19:57;102714.81;;;18.31;40.62
85268;BME280;75677;52.380;4.876;2024-03-07T01:22:23;102714.81;;;18.31;40.75
85268;BME280;75677;52.380;4.876;2024-03-07T01:24:49;102712.38;;;18.30;40.80
85268;BME280;75677;52.380;4.876;2024-03-07T01:27:16;102708.38;;;18.31;40.60
85268;BME280;75677;52.380;4.876;2024-03-07T01:29:41;102708.38;;;18.31;40.50
85268;BME280;75677;52.380;4.876;2024-03-07T01:32:08;102712.38;;;18.30;40.55
85268;BME280;75677;52.380;4.876;2024-03-07T01:34:33;102702.78;;;18.31;40.73
85268;BME280;75677;52.380;4.876;2024-03-07T01:36:58;102708.38;;;18.31;40.36
85268;BME280;75677;52.380;4.876;2024-03-07T01:39:24;102715.16;;;18.30;40.45
85268;BME280;75677;52.380;4.876;2024-03-07T01:41:49;102698.31;;;18.26;40.66
85268;BME280;75677;52.380;4.876;2024-03-07T01:44:15;102704.28;;;18.25;40.40
85268;BME280;75677;52.380;4.876;2024-03-07T01:46:40;102680.84;;;18.10;40.45
85268;BME280;75677;52.380;4.876;2024-03-07T01:49:09;102705.53;;;18.27;40.55
85268;BME280;75677;52.380;4.876;2024-03-07T01:51:36;102708.78;;;18.29;40.24
85268;BME280;75677;52.380;4.876;2024-03-07T01:54:03;102705.53;;;18.27;40.32
85268;BME280;75677;52.380;4.876;2024-03-07T01:56:29;102706.69;;;18.26;40.54
85268;BME280;75677;52.380;4.876;2024-03-07T01:58:55;102707.09;;;18.25;40.71
85268;BME280;75677;52.380;4.876;2024-03-07T02:01:22;102707.91;;;18.25;40.58
85268;BME280;75677;52.380;4.876;2024-03-07T02:03:48;102701.50;;;18.25;40.47
85268;BME280;75677;52.380;4.876;2024-03-07T02:06:14;102699.94;;;18.27;40.30
85268;BME280;75677;52.380;4.876;2024-03-07T02:08:40;102692.66;;;18.23;40.24
85268;BME280;75677;52.380;4.876;2024-03-07T02:11:05;102701.56;;;18.28;40.34
85268;BME280;75677;52.380;4.876;2024-03-07T02:13:30;102695.91;;;18.25;40.46
85268;BME280;75677;52.380;4.876;2024-03-07T02:15:57;102661.19;;;18.06;40.50
85268;BME280;75677;52.380;4.876;2024-03-07T02:18:22;102691.47;;;18.24;40.60
85268;BME280;75677;52.380;4.876;2024-03-07T02:20:48;102678.16;;;18.17;40.60
85268;BME280;75677;52.380;4.876;2024-03-07T02:23:14;102691.84;;;18.22;40.44
85268;BME280;75677;52.380;4.876;2024-03-07T02:25:40;102688.31;;;18.25;40.33
85268;BME280;75677;52.380;4.876;2024-03-07T02:28:05;102689.06;;;18.22;40.46
85268;BME280;75677;52.380;4.876;2024-03-07T02:30:31;102689.88;;;18.23;40.45
85268;BME280;75677;52.380;4.876;2024-03-07T02:33:00;102686.25;;;18.22;40.32
85268;BME280;75677;52.380;4.876;2024-03-07T02:35:34;102690.28;;;18.25;40.33
85268;BME280;75677;52.380;4.876;2024-03-07T02:38:03;102679.03;;;18.21;40.32
85268;BME280;75677;52.380;4.876;2024-03-07T02:40:29;102682.66;;;18.22;40.37
85268;BME280;75677;52.380;4.876;2024-03-07T02:42:54;102693.03;;;18.21;40.54
85268;BME280;75677;52.380;4.876;2024-03-07T02:45:20;102683.00;;;18.20;40.26
85268;BME280;75677;52.380;4.876;2024-03-07T02:47:46;102683.41;;;18.19;40.38
85268;BME280;75677;52.380;4.876;2024-03-07T02:50:11;102692.22;;;18.21;40.24
85268;BME280;75677;52.380;4.876;2024-03-07T02:52:37;102680.22;;;18.20;40.34
85268;BME280;75677;52.380;4.876;2024-03-07T02:55:02;102685.81;;;18.20;40.17
85268;BME280;75677;52.380;4.876;2024-03-07T02:57:30;102670.47;;;18.11;40.34
85268;BME280;75677;52.380;4.876;2024-03-07T02:59:55;102675.81;;;18.19;40.30
85268;BME280;75677;52.380;4.876;2024-03-07T03:02:21;102672.25;;;18.22;40.26
85268;BME280;75677;52.380;4.876;2024-03-07T03:04:47;102667.03;;;18.21;40.25
85268;BME280;75677;52.380;4.876;2024-03-07T03:07:12;102668.59;;;18.18;40.46
85268;BME280;75677;52.380;4.876;2024-03-07T03:09:38;102659.78;;;18.16;40.31
85268;BME280;75677;52.380;4.876;2024-03-07T03:12:09;102665.78;;;18.18;40.24
85268;BME280;75677;52.380;4.876;2024-03-07T03:14:35;102654.13;;;18.13;40.27
85268;BME280;75677;52.380;4.876;2024-03-07T03:17:00;102658.16;;;18.15;40.44
85268;BME280;75677;52.380;4.876;2024-03-07T03:19:25;102654.53;;;18.15;40.35
85268;BME280;75677;52.380;4.876;2024-03-07T03:21:52;102651.19;;;18.05;40.32
85268;BME280;75677;52.380;4.876;2024-03-07T03:24:17;102662.13;;;18.14;40.47
85268;BME280;75677;52.380;4.876;2024-03-07T03:26:43;102664.56;;;18.16;40.29
85268;BME280;75677;52.380;4.876;2024-03-07T03:29:08;102657.34;;;18.15;40.46
85268;BME280;75677;52.380;4.876;2024-03-07T03:31:35;102658.50;;;18.14;40.63
85268;BME280;75677;52.380;4.876;2024-03-07T03:34:00;102656.53;;;18.14;40.41
85268;BME280;75677;52.380;4.876;2024-03-07T03:36:26;102649.28;;;18.13;40.47
85268;BME280;75677;52.380;4.876;2024-03-07T03:38:52;102646.06;;;18.11;40.26
85268;BME280;75677;52.380;4.876;2024-03-07T03:41:17;102641.66;;;18.10;40.40
85268;BME280;75677;52.380;4.876;2024-03-07T03:43:43;102653.31;;;18.12;40.23
85268;BME280;75677;52.380;4.876;2024-03-07T03:46:11;102657.69;;;18.13;40.41
85268;BME280;75677;52.380;4.876;2024-03-07T03:48:40;102645.72;;;18.13;40.29
85268;BME280;75677;52.380;4.876;2024-03-07T03:51:08;102636.13;;;18.14;40.08
85268;BME280;75677;52.380;4.876;2024-03-07T03:53:35;102635.28;;;18.10;40.16
85268;BME280;75677;52.380;4.876;2024-03-07T03:56:00;102646.50;;;18.13;40.22
85268;BME280;75677;52.380;4.876;2024-03-07T03:58:26;102636.44;;;18.08;40.21
85268;BME280;75677;52.380;4.876;2024-03-07T04:00:51;102637.69;;;18.11;40.19
85268;BME280;75677;52.380;4.876;2024-03-07T04:03:17;102618.34;;;18.02;40.24
85268;BME280;75677;52.380;4.876;2024-03-07T04:05:42;102632.50;;;18.13;40.21
85268;BME280;75677;52.380;4.876;2024-03-07T04:08:07;102635.69;;;18.12;40.13
85268;BME280;75677;52.380;4.876;2024-03-07T04:10:34;102633.25;;;18.10;40.20
85268;BME280;75677;52.380;4.876;2024-03-07T04:13:00;102632.47;;;18.10;40.16
85268;BME280;75677;52.380;4.876;2024-03-07T04:15:25;102630.09;;;18.12;40.17
85268;BME280;75677;52.380;4.876;2024-03-07T04:17:55;102626.88;;;18.10;40.10
85268;BME280;75677;52.380;4.876;2024-03-07T04:20:22;102631.28;;;18.11;40.18
85268;BME280;75677;52.380;4.876;2024-03-07T04:22:47;102626.31;;;18.00;40.04
85268;BME280;75677;52.380;4.876;2024-03-07T04:25:14;102633.25;;;18.10;40.16
85268;BME280;75677;52.380;4.876;2024-03-07T04:27:39;102631.28;;;18.11;39.98
85268;BME280;75677;52.380;4.876;2024-03-07T04:30:06;102635.69;;;18.12;39.98
85268;BME280;75677;52.380;4.876;2024-03-07T04:32:33;102634.81;;;18.07;39.77
85268;BME280;75677;52.380;4.876;2024-03-07T04:35:01;102621.94;;;18.03;40.14
85268;BME280;75677;52.380;4.876;2024-03-07T04:37:32;102637.63;;;18.07;39.79
85268;BME280;75677;52.380;4.876;2024-03-07T04:40:04;102645.66;;;18.09;39.92
85268;BME280;75677;52.380;4.876;2024-03-07T04:42:40;102639.66;;;18.11;39.96
85268;BME280;75677;52.380;4.876;2024-03-07T04:45:06;102639.25;;;18.08;39.96
85268;BME280;75677;52.380;4.876;2024-03-07T04:47:31;102641.59;;;18.06;39.92
85268;BME280;75677;52.380;4.876;2024-03-07T04:49:57;102642.84;;;18.09;39.99
85268;BME280;75677;52.380;4.876;2024-03-07T04:52:22;102638.84;;;18.10;39.92
85268;BME280;75677;52.380;4.876;2024-03-07T04:54:47;102634.47;;;18.09;39.70
85268;BME280;75677;52.380;4.876;2024-03-07T04:57:13;102638.44;;;18.08;39.92
85268;BME280;75677;52.380;4.876;2024-03-07T04:59:38;102630.84;;;18.08;39.91
85268;BME280;75677;52.380;4.876;2024-03-07T05:02:03;102643.59;;;18.06;39.87
85268;BME280;75677;52.380;4.876;2024-03-07T05:04:30;102632.03;;;18.07;39.85
85268;BME280;75677;52.380;4.876;2024-03-07T05:06:58;102626.81;;;18.06;39.98
85268;BME280;75677;52.380;4.876;2024-03-07T05:09:23;102636.44;;;18.08;39.94
85268;BME280;75677;52.380;4.876;2024-03-07T05:11:50;102625.56;;;18.03;39.82
85268;BME280;75677;52.380;4.876;2024-03-07T05:14:19;102631.59;;;18.05;39.87
85268;BME280;75677;52.380;4.876;2024-03-07T05:16:46;102633.94;;;18.03;39.69
85268;BME280;75677;52.380;4.876;2024-03-07T05:19:13;102633.19;;;18.06;39.80
85268;BME280;75677;52.380;4.876;2024-03-07T05:21:39;102633.19;;;18.06;39.79
85268;BME280;75677;52.380;4.876;2024-03-07T05:24:06;102632.03;;;18.07;39.74
85268;BME280;75677;52.380;4.876;2024-03-07T05:26:32;102630.84;;;18.08;39.55
85268;BME280;75677;52.380;4.876;2024-03-07T05:29:05;102623.50;;;18.00;40.00
85268;BME280;75677;52.380;4.876;2024-03-07T05:31:36;102622.41;;;18.05;39.70
85268;BME280;75677;52.380;4.876;2024-03-07T05:34:02;102632.78;;;18.04;39.77
85268;BME280;75677;52.380;4.876;2024-03-07T05:36:35;102630.41;;;18.06;39.76
85268;BME280;75677;52.380;4.876;2024-03-07T05:39:01;102626.44;;;18.07;39.63
85268;BME280;75677;52.380;4.876;2024-03-07T05:41:33;102630.09;;;18.12;39.75
85268;BME280;75677;52.380;4.876;2024-03-07T05:43:59;102626.19;;;18.16;39.82
85268;BME280;75677;52.380;4.876;2024-03-07T05:46:25;102623.84;;;18.22;39.70
85268;BME280;75677;52.380;4.876;2024-03-07T05:48:50;102632.75;;;18.27;39.55
85268;BME280;75677;52.380;4.876;2024-03-07T05:51:21;102631.22;;;18.33;39.61
85268;BME280;75677;52.380;4.876;2024-03-07T05:53:47;102632.09;;;18.37;39.74
85268;BME280;75677;52.380;4.876;2024-03-07T05:56:12;102628.53;;;18.40;39.74
85268;BME280;75677;52.380;4.876;2024-03-07T05:58:37;102633.38;;;18.43;39.74
85268;BME280;75677;52.380;4.876;2024-03-07T06:01:03;102626.25;;;18.46;39.43
85268;BME280;75677;52.380;4.876;2024-03-07T06:03:28;102632.25;;;18.48;39.42
85268;BME280;75677;52.380;4.876;2024-03-07T06:05:53;102629.91;;;18.50;39.36
85268;BME280;75677;52.380;4.876;2024-03-07T06:08:20;102618.25;;;18.48;39.61
85268;BME280;75677;52.380;4.876;2024-03-07T06:10:47;102625.16;;;18.54;39.46
85268;BME280;75677;52.380;4.876;2024-03-07T06:13:14;102627.91;;;18.50;39.35
85268;BME280;75677;52.380;4.876;2024-03-07T06:15:43;102637.03;;;18.47;39.15
85268;BME280;75677;52.380;4.876;2024-03-07T06:18:08;102632.19;;;18.44;39.15
85268;BME280;75677;52.380;4.876;2024-03-07T06:20:35;102634.94;;;18.41;39.15
85268;BME280;75677;52.380;4.876;2024-03-07T06:23:01;102635.34;;;18.39;39.07
85268;BME280;75677;52.380;4.876;2024-03-07T06:25:34;102629.28;;;18.37;39.74
85268;BME280;75677;52.380;4.876;2024-03-07T06:28:04;102637.31;;;18.39;38.99
85268;BME280;75677;52.380;4.876;2024-03-07T06:30:45;102630.09;;;18.38;39.05
85268;BME280;75677;52.380;4.876;2024-03-07T06:33:12;102640.50;;;18.37;38.67
85268;BME280;75677;52.380;4.876;2024-03-07T06:35:41;102630.88;;;18.35;38.55
85268;BME280;75677;52.380;4.876;2024-03-07T06:38:08;102627.19;;;18.31;38.38
85268;BME280;75677;52.380;4.876;2024-03-07T06:40:35;102634.06;;;18.37;38.75
85268;BME280;75677;52.380;4.876;2024-03-07T06:43:02;102642.88;;;18.35;38.70
85268;BME280;75677;52.380;4.876;2024-03-07T06:45:32;102630.03;;;18.34;38.37
85268;BME280;75677;52.380;4.876;2024-03-07T06:47:57;102629.63;;;18.32;38.44
85268;BME280;75677;52.380;4.876;2024-03-07T06:50:22;102642.00;;;18.31;38.46
85268;BME280;75677;52.380;4.876;2024-03-07T06:52:48;102603.69;;;18.09;38.44
85268;BME280;75677;52.380;4.876;2024-03-07T06:55:18;102633.19;;;18.29;38.47
85268;BME280;75677;52.380;4.876;2024-03-07T06:57:46;102638.72;;;18.26;38.64
85268;BME280;75677;52.380;4.876;2024-03-07T07:00:13;102625.91;;;18.25;38.43
85268;BME280;75677;52.380;4.876;2024-03-07T07:02:40;102607.72;;;18.12;38.34
85268;BME280;75677;52.380;4.876;2024-03-07T07:05:09;102629.06;;;18.23;38.48
85268;BME280;75677;52.380;4.876;2024-03-07T07:07:38;102631.09;;;18.23;38.19
85268;BME280;75677;52.380;4.876;2024-03-07T07:10:04;102630.63;;;18.21;38.26
85268;BME280;75677;52.380;4.876;2024-03-07T07:12:30;102631.44;;;18.21;38.17
85268;BME280;75677;52.380;4.876;2024-03-07T07:14:55;102635.41;;;18.20;38.16
85268;BME280;75677;52.380;4.876;2024-03-07T07:17:21;102628.59;;;18.18;38.14
85268;BME280;75677;52.380;4.876;2024-03-07T07:19:47;102631.78;;;18.16;38.16
85268;BME280;75677;52.380;4.876;2024-03-07T07:22:12;102635.75;;;18.15;38.63
85268;BME280;75677;52.380;4.876;2024-03-07T07:24:38;102626.91;;;18.13;37.99
85268;BME280;75677;52.380;4.876;2024-03-07T07:27:03;102632.50;;;18.13;37.97
85268;BME280;75677;52.380;4.876;2024-03-07T07:29:28;102633.72;;;18.12;37.93
85268;BME280;75677;52.380;4.876;2024-03-07T07:31:54;102623.56;;;18.04;37.95
85268;BME280;75677;52.380;4.876;2024-03-07T07:34:20;102632.47;;;18.10;38.01
85268;BME280;75677;52.380;4.876;2024-03-07T07:36:45;102624.03;;;18.06;37.92
85268;BME280;75677;52.380;4.876;2024-03-07T07:39:11;102636.75;;;18.03;37.59
85268;BME280;75677;52.380;4.876;2024-03-07T07:41:42;102623.31;;;17.90;37.54
85268;BME280;75677;52.380;4.876;2024-03-07T07:44:07;102635.78;;;17.92;37.31
85268;BME280;75677;52.380;4.876;2024-03-07T07:46:33;102630.75;;;17.79;36.71
85268;BME280;75677;52.380;4.876;2024-03-07T07:49:01;102634.66;;;17.74;36.84
85268;BME280;75677;52.380;4.876;2024-03-07T07:51:26;102636.56;;;17.70;36.76
85268;BME280;75677;52.380;4.876;2024-03-07T07:53:52;102630.56;;;17.68;36.52
85268;BME280;75677;52.380;4.876;2024-03-07T07:56:19;102628.91;;;17.67;36.96
85268;BME280;75677;52.380;4.876;2024-03-07T07:58:45;102637.19;;;17.60;37.08
85268;BME280;75677;52.380;4.876;2024-03-07T08:01:11;102634.84;;;17.62;37.18
85268;BME280;75677;52.380;4.876;2024-03-07T08:03:36;102635.13;;;17.57;36.58
85268;BME280;75677;52.380;4.876;2024-03-07T08:06:03;102630.25;;;17.54;36.51
85268;BME280;75677;52.380;4.876;2024-03-07T08:08:28;102632.78;;;17.59;36.50
85268;BME280;75677;52.380;4.876;2024-03-07T08:10:54;102628.38;;;17.58;37.08
85268;BME280;75677;52.380;4.876;2024-03-07T08:13:19;102634.09;;;17.65;36.46
85268;BME280;75677;52.380;4.876;2024-03-07T08:15:45;102621.00;;;17.69;36.51
85268;BME280;75677;52.380;4.876;2024-03-07T08:18:10;102622.03;;;17.61;36.31
85268;BME280;75677;52.380;4.876;2024-03-07T08:20:36;102624.81;;;17.61;36.34
85268;BME280;75677;52.380;4.876;2024-03-07T08:23:02;102628.72;;;17.56;35.78
85268;BME280;75677;52.380;4.876;2024-03-07T08:25:29;102629.38;;;17.50;36.00
85268;BME280;75677;52.380;4.876;2024-03-07T08:27:56;102631.00;;;17.51;36.95
85268;BME280;75677;52.380;4.876;2024-03-07T08:30:22;102627.41;;;17.70;37.07
85268;BME280;75677;52.380;4.876;2024-03-07T08:32:57;102633.09;;;17.77;36.66
85268;BME280;75677;52.380;4.876;2024-03-07T08:35:24;102621.97;;;17.80;36.73
85268;BME280;75677;52.380;4.876;2024-03-07T08:37:51;102616.25;;;17.96;37.04
85268;BME280;75677;52.380;4.876;2024-03-07T08:40:21;102623.22;;;18.05;35.63
85268;BME280;75677;52.380;4.876;2024-03-07T08:42:51;102624.53;;;17.89;34.88
85268;BME280;75677;52.380;4.876;2024-03-07T08:45:17;102622.97;;;17.91;35.71
85268;BME280;75677;52.380;4.876;2024-03-07T08:47:45;102623.91;;;17.99;35.49
85268;BME280;75677;52.380;4.876;2024-03-07T08:50:12;102621.22;;;18.06;35.39
85268;BME280;75677;52.380;4.876;2024-03-07T08:52:38;102620.88;;;18.11;34.98
85268;BME280;75677;52.380;4.876;2024-03-07T08:55:08;102628.06;;;18.08;35.10
85268;BME280;75677;52.380;4.876;2024-03-07T08:57:35;102622.75;;;18.03;35.14
85268;BME280;75677;52.380;4.876;2024-03-07T09:00:03;102623.91;;;17.99;35.18
85268;BME280;75677;52.380;4.876;2024-03-07T09:02:34;102613.00;;;17.94;35.20
85268;BME280;75677;52.380;4.876;2024-03-07T09:05:00;102617.78;;;17.93;35.21
85268;BME280;75677;52.380;4.876;2024-03-07T09:07:26;102620.53;;;17.90;35.18
85268;BME280;75677;52.380;4.876;2024-03-07T09:09:51;102618.34;;;17.80;34.71
85268;BME280;75677;52.380;4.876;2024-03-07T09:12:16;102612.88;;;17.64;34.62
85268;BME280;75677;52.380;4.876;2024-03-07T09:14:43;102612.59;;;17.50;35.03
85268;BME280;75677;52.380;4.876;2024-03-07T09:17:09;102606.09;;;17.42;35.04
85268;BME280;75677;52.380;4.876;2024-03-07T09:19:34;102613.16;;;17.36;34.90
85268;BME280;75677;52.380;4.876;2024-03-07T09:22:00;102596.13;;;17.22;34.96
85268;BME280;75677;52.380;4.876;2024-03-07T09:24:25;102618.91;;;17.24;35.09
85268;BME280;75677;52.380;4.876;2024-03-07T09:26:51;102604.03;;;17.20;35.22
85268;BME280;75677;52.380;4.876;2024-03-07T09:29:18;102606.63;;;17.29;35.44
85268;BME280;75677;52.380;4.876;2024-03-07T09:31:49;102595.78;;;17.27;35.07
85268;BME280;75677;52.380;4.876;2024-03-07T09:34:17;102595.22;;;17.18;35.15
85268;BME280;75677;52.380;4.876;2024-03-07T09:36:42;102595.53;;;17.13;35.23
85268;BME280;75677;52.380;4.876;2024-03-07T09:39:08;102592.81;;;17.17;35.36
85268;BME280;75677;52.380;4.876;2024-03-07T09:41:34;102591.56;;;17.14;35.50
85268;BME280;75677;52.380;4.876;2024-03-07T09:44:00;102598.69;;;17.12;35.44
85268;BME280;75677;52.380;4.876;2024-03-07T09:46:26;102597.44;;;17.09;35.34
85268;BME280;75677;52.380;4.876;2024-03-07T09:48:52;102595.53;;;17.13;35.57
85268;BME280;75677;52.380;4.876;2024-03-07T09:51:20;102591.56;;;17.14;35.48
85268;BME280;75677;52.380;4.876;2024-03-07T09:53:50;102591.78;;;17.05;35.36
85268;BME280;75677;52.380;4.876;2024-03-07T09:56:27;102589.44;;;17.08;35.58
85268;BME280;75677;52.380;4.876;2024-03-07T09:58:57;102584.66;;;17.08;35.47
85268;BME280;75677;52.380;4.876;2024-03-07T10:01:25;102576.59;;;17.03;35.43
85268;BME280;75677;52.380;4.876;2024-03-07T10:03:57;102578.09;;;17.00;35.14
85268;BME280;75677;52.380;4.876;2024-03-07T10:06:23;102576.06;;;16.97;35.45
85268;BME280;75677;52.380;4.876;2024-03-07T10:08:50;102574.16;;;17.01;35.39
85268;BME280;75677;52.380;4.876;2024-03-07T10:11:16;102572.66;;;17.08;35.57
85268;BME280;75677;52.380;4.876;2024-03-07T10:13:41;102576.66;;;17.07;35.31
85268;BME280;75677;52.380;4.876;2024-03-07T10:16:07;102567.75;;;17.01;34.99
85268;BME280;75677;52.380;4.876;2024-03-07T10:18:41;102565.25;;;16.96;35.19
85268;BME280;75677;52.380;4.876;2024-03-07T10:21:07;102558.34;;;17.09;35.11
85268;BME280;75677;52.380;4.876;2024-03-07T10:23:32;102576.34;;;17.12;34.97
85268;BME280;75677;52.380;4.876;2024-03-07T10:25:59;102560.00;;;17.14;34.92
85268;BME280;75677;52.380;4.876;2024-03-07T10:28:26;102568.53;;;17.21;35.04
85268;BME280;75677;52.380;4.876;2024-03-07T10:30:52;102566.41;;;17.14;34.92
85268;BME280;75677;52.380;4.876;2024-03-07T10:33:17;102556.78;;;17.12;34.95
85268;BME280;75677;52.380;4.876;2024-03-07T10:35:46;102560.53;;;17.19;34.96
85268;BME280;75677;52.380;4.876;2024-03-07T10:38:14;102561.16;;;17.32;35.27
85268;BME280;75677;52.380;4.876;2024-03-07T10:40:40;102555.38;;;17.44;35.23
85268;BME280;75677;52.380;4.876;2024-03-07T10:43:11;102553.16;;;17.53;35.41
85268;BME280;75677;52.380;4.876;2024-03-07T10:45:49;102546.47;;;17.58;35.14
85268;BME280;75677;52.380;4.876;2024-03-07T10:48:19;102530.84;;;17.56;35.14
85268;BME280;75677;52.380;4.876;2024-03-07T10:50:54;102536.63;;;17.67;35.08
85268;BME280;75677;52.380;4.876;2024-03-07T10:56:15;102543.22;;;17.78;35.07
85268;BME280;75677;52.380;4.876;2024-03-07T10:59:07;102537.69;;;17.82;35.05
85268;BME280;75677;52.380;4.876;2024-03-07T11:01:39;102537.34;;;17.87;34.86
85268;BME280;75677;52.380;4.876;2024-03-07T11:04:10;102507.13;;;17.70;34.96
85268;BME280;75677;52.380;4.876;2024-03-07T11:06:40;102532.56;;;17.87;35.10
85268;BME280;75677;52.380;4.876;2024-03-07T11:09:06;102527.84;;;17.91;34.93
85268;BME280;75677;52.380;4.876;2024-03-07T11:11:38;102522.66;;;17.93;34.82
85268;BME280;75677;52.380;4.876;2024-03-07T11:14:08;102535.53;;;17.98;34.64
85268;BME280;75677;52.380;4.876;2024-03-07T11:16:37;102476.72;;;17.68;34.53
85268;BME280;75677;52.380;4.876;2024-03-07T11:19:29;102527.06;;;17.94;34.16
85268;BME280;75677;52.380;4.876;2024-03-07T11:21:59;102520.31;;;17.95;34.12
85268;BME280;75677;52.380;4.876;2024-03-07T11:24:29;102517.16;;;18.00;34.51
85268;BME280;75677;52.380;4.876;2024-03-07T11:26:58;102524.00;;;18.03;34.64
85268;BME280;75677;52.380;4.876;2024-03-07T11:32:15;102517.66;;;18.06;34.49
85268;BME280;75677;52.380;4.876;2024-03-07T11:34:42;102508.81;;;18.04;34.58
85268;BME280;75677;52.380;4.876;2024-03-07T11:37:08;102506.94;;;18.12;34.85
85268;BME280;75677;52.380;4.876;2024-03-07T11:39:49;102510.72;;;18.26;35.30
85268;BME280;75677;52.380;4.876;2024-03-07T11:44:53;102498.97;;;18.43;35.23
85268;BME280;75677;52.380;4.876;2024-03-07T11:47:23;102502.69;;;18.51;35.02
85268;BME280;75677;52.380;4.876;2024-03-07T11:49:52;102493.56;;;18.57;35.57
85268;BME280;75677;52.380;4.876;2024-03-07T11:52:18;102493.72;;;18.68;40.77
85268;BME280;75677;52.380;4.876;2024-03-07T11:54:44;102487.41;;;18.78;36.54
85268;BME280;75677;52.380;4.876;2024-03-07T11:57:16;102479.00;;;18.78;35.87
85268;BME280;75677;52.380;4.876;2024-03-07T11:59:44;102479.00;;;18.78;36.09
85268;BME280;75677;52.380;4.876;2024-03-07T12:02:17;102478.22;;;18.78;35.83
85268;BME280;75677;52.380;4.876;2024-03-07T12:04:49;102461.00;;;18.76;35.69
85268;BME280;75677;52.380;4.876;2024-03-07T12:07:15;102465.00;;;18.78;35.82
85268;BME280;75677;52.380;4.876;2024-03-07T12:09:44;102447.00;;;18.79;35.81
85268;BME280;75677;52.380;4.876;2024-03-07T12:12:16;102452.22;;;18.81;35.62
85268;BME280;75677;52.380;4.876;2024-03-07T12:14:46;102445.84;;;18.84;35.59
85268;BME280;75677;52.380;4.876;2024-03-07T12:17:15;102449.81;;;18.83;35.50
85268;BME280;75677;52.380;4.876;2024-03-07T12:19:42;102434.25;;;18.85;35.58
85268;BME280;75677;52.380;4.876;2024-03-07T12:22:08;102414.94;;;18.77;35.59
85268;BME280;75677;52.380;4.876;2024-03-07T12:24:40;102422.28;;;18.88;35.49
85268;BME280;75677;52.380;4.876;2024-03-07T12:27:08;102428.28;;;18.90;35.81
85268;BME280;75677;52.380;4.876;2024-03-07T12:29:35;102418.31;;;18.93;35.77
85268;BME280;75677;52.380;4.876;2024-03-07T12:32:01;102411.09;;;18.92;35.74
85268;BME280;75677;52.380;4.876;2024-03-07T12:34:26;102412.34;;;18.98;35.60
85268;BME280;75677;52.380;4.876;2024-03-07T12:36:53;102406.34;;;18.99;35.48
85268;BME280;75677;52.380;4.876;2024-03-07T12:39:24;102385.88;;;18.92;35.97
85268;BME280;75677;52.380;4.876;2024-03-07T12:41:56;102400.41;;;19.04;36.31
85268;BME280;75677;52.380;4.876;2024-03-07T12:44:21;102397.19;;;19.06;35.87
85268;BME280;75677;52.380;4.876;2024-03-07T12:46:54;102396.34;;;18.98;34.70
85268;BME280;75677;52.380;4.876;2024-03-07T12:49:23;102387.44;;;18.89;34.79
85268;BME280;75677;52.380;4.876;2024-03-07T12:51:53;102399.09;;;18.91;35.05
85268;BME280;75677;52.380;4.876;2024-03-07T12:54:20;102383.91;;;18.92;35.69
85268;BME280;75677;52.380;4.876;2024-03-07T12:56:47;102382.34;;;18.98;35.51
85268;BME280;75677;52.380;4.876;2024-03-07T12:59:15;102387.53;;;19.00;35.23